createdAt,value
2023-03-29T00:01:42.322Z,52.59
2023-03-29T00:04:10.208Z,53.17
2023-03-29T00:06:38.492Z,53.92
2023-03-29T00:09:06.092Z,54.54
2023-03-29T00:11:33.026Z,55.04
2023-03-29T00:13:59.738Z,55.03
2023-03-29T00:16:26.814Z,56.01
2023-03-29T00:18:53.494Z,56.06
2023-03-29T00:21:20.686Z,56.50
2023-03-29T00:23:47.357Z,56.84
2023-03-29T00:26:14.003Z,56.74
2023-03-29T00:28:40.826Z,57.26
2023-03-29T00:31:10.994Z,57.58
2023-03-29T00:33:37.788Z,57.56
2023-03-29T00:36:06.080Z,57.83
2023-03-29T00:38:33.167Z,58.71
2023-03-29T00:41:00.420Z,58.95
2023-03-29T00:43:27.623Z,59.01
2023-03-29T00:45:54.465Z,59.76
2023-03-29T00:48:24.424Z,59.73
2023-03-29T00:50:54.561Z,59.58
2023-03-29T00:53:26.223Z,59.87
2023-03-29T00:56:12.322Z,60.03
2023-03-29T00:58:54.808Z,59.91
2023-03-29T01:01:28.407Z,60.16
2023-03-29T01:04:04.418Z,60.22
2023-03-29T01:06:34.309Z,60.09
2023-03-29T01:09:04.610Z,60.64
2023-03-29T01:11:36.529Z,60.39
2023-03-29T01:14:06.026Z,60.44
2023-03-29T01:16:34.246Z,60.80
2023-03-29T01:19:02.325Z,60.98
2023-03-29T01:21:33.281Z,61.11
2023-03-29T01:24:09.232Z,61.66
2023-03-29T01:27:23.609Z,61.29
2023-03-29T01:29:57.756Z,61.36
2023-03-29T01:32:37.472Z,61.47
2023-03-29T01:35:10.508Z,61.35
2023-03-29T01:37:41.277Z,61.75
2023-03-29T01:40:08.568Z,62.26
2023-03-29T01:42:42.309Z,62.43
2023-03-29T01:45:10.743Z,62.12
2023-03-29T01:47:48.252Z,62.36
2023-03-29T01:50:19.361Z,62.00
2023-03-29T01:53:06.654Z,62.52
2023-03-29T01:55:36.060Z,62.79
2023-03-29T01:58:04.638Z,63.22
2023-03-29T02:00:31.964Z,63.13
2023-03-29T02:03:01.451Z,62.82
2023-03-29T02:05:30.660Z,62.84
2023-03-29T02:08:00.268Z,62.98
2023-03-29T02:10:27.453Z,63.25
2023-03-29T02:12:54.162Z,63.54
2023-03-29T02:15:21.063Z,63.98
2023-03-29T02:17:49.367Z,63.24
2023-03-29T02:20:27.380Z,63.34
2023-03-29T02:23:18.640Z,63.11
2023-03-29T02:25:45.927Z,63.58
2023-03-29T02:28:13.016Z,64.10
2023-03-29T02:31:04.709Z,64.35
2023-03-29T02:33:37.008Z,64.65
2023-03-29T02:36:10.349Z,64.85
2023-03-29T02:38:39.060Z,64.69
2023-03-29T02:41:07.021Z,65.25
2023-03-29T02:43:34.716Z,65.21
2023-03-29T02:46:02.086Z,65.24
2023-03-29T02:48:29.555Z,65.44
2023-03-29T02:50:58.600Z,65.23
2023-03-29T02:53:43.734Z,65.62
2023-03-29T02:56:10.642Z,65.63
2023-03-29T02:58:37.333Z,65.56
2023-03-29T03:01:06.796Z,65.08
2023-03-29T03:03:33.617Z,64.99
2023-03-29T03:06:01.683Z,65.04
2023-03-29T03:08:28.611Z,64.91
2023-03-29T03:10:55.448Z,65.19
2023-03-29T03:13:22.143Z,65.24
2023-03-29T03:15:49.492Z,65.41
2023-03-29T03:18:16.743Z,65.22
2023-03-29T03:20:46.914Z,65.25
2023-03-29T03:23:13.726Z,65.41
2023-03-29T03:25:40.454Z,65.53
2023-03-29T03:28:07.615Z,65.56
2023-03-29T03:30:34.675Z,65.30
2023-03-29T03:33:01.513Z,65.49
2023-03-29T03:35:28.517Z,65.33
2023-03-29T03:37:55.353Z,65.19
2023-03-29T03:40:22.614Z,65.16
2023-03-29T03:42:49.409Z,65.05
2023-03-29T03:45:16.631Z,65.68
2023-03-29T03:47:43.433Z,65.60
2023-03-29T03:50:11.617Z,65.57
2023-03-29T03:52:38.440Z,65.67
2023-03-29T03:55:05.472Z,66.02
2023-03-29T03:57:33.104Z,65.91
2023-03-29T04:00:00.020Z,66.13
2023-03-29T04:02:27.500Z,66.30
2023-03-29T04:04:54.833Z,65.49
2023-03-29T04:07:21.619Z,65.32
2023-03-29T04:09:48.857Z,65.90
2023-03-29T04:12:15.755Z,66.47
2023-03-29T04:14:42.740Z,65.93
2023-03-29T04:17:09.454Z,66.00
2023-03-29T04:19:36.204Z,65.93
2023-03-29T04:22:02.977Z,66.13
2023-03-29T04:24:29.654Z,65.82
2023-03-29T04:26:56.463Z,66.20
2023-03-29T04:29:23.143Z,66.42
2023-03-29T04:31:49.977Z,66.90
2023-03-29T04:34:16.962Z,66.91
2023-03-29T04:36:43.709Z,66.75
2023-03-29T04:39:10.642Z,66.31
2023-03-29T04:41:37.374Z,65.77
2023-03-29T04:44:04.169Z,65.89
2023-03-29T04:46:32.369Z,65.16
2023-03-29T04:48:59.303Z,64.28
2023-03-29T04:51:26.186Z,63.25
2023-03-29T04:53:53.031Z,62.32
2023-03-29T04:56:19.832Z,61.99
2023-03-29T04:58:46.639Z,60.96
2023-03-29T05:01:13.444Z,59.92
2023-03-29T05:03:40.239Z,59.36
2023-03-29T05:06:09.370Z,59.51
2023-03-29T05:08:40.886Z,58.96
2023-03-29T05:11:11.733Z,58.94
2023-03-29T05:13:38.550Z,58.86
2023-03-29T05:16:06.863Z,58.70
2023-03-29T05:18:33.814Z,58.54
2023-03-29T05:21:00.898Z,58.65
2023-03-29T05:23:28.014Z,58.46
2023-03-29T05:25:54.811Z,58.26
2023-03-29T05:28:21.795Z,57.95
2023-03-29T05:30:59.548Z,57.36
2023-03-29T05:33:26.734Z,62.30
2023-03-29T05:36:19.996Z,62.90
2023-03-29T05:38:47.340Z,61.62
2023-03-29T05:41:15.987Z,57.96
2023-03-29T05:43:42.910Z,56.50
2023-03-29T05:46:09.920Z,55.94
2023-03-29T05:48:36.689Z,55.46
2023-03-29T05:51:03.773Z,54.50
2023-03-29T05:53:30.711Z,55.31
2023-03-29T05:55:57.513Z,51.59
2023-03-29T05:58:26.392Z,53.92
2023-03-29T06:00:53.200Z,52.47
2023-03-29T06:03:23.807Z,47.38
2023-03-29T06:05:59.553Z,47.25
2023-03-29T06:08:27.619Z,46.92
2023-03-29T06:11:05.227Z,47.26
2023-03-29T06:13:34.102Z,47.33
2023-03-29T06:16:01.488Z,47.48
2023-03-29T06:18:28.534Z,47.87
2023-03-29T06:20:55.432Z,47.97
2023-03-29T06:23:23.275Z,47.79
2023-03-29T06:25:53.754Z,47.01
2023-03-29T06:28:20.551Z,46.83
2023-03-29T06:30:48.045Z,46.67
2023-03-29T06:33:15.546Z,46.10
2023-03-29T06:35:46.153Z,46.19
2023-03-29T06:38:13.807Z,45.29
2023-03-29T06:40:42.012Z,44.74
2023-03-29T06:43:09.186Z,44.93
2023-03-29T06:45:37.680Z,44.70
2023-03-29T06:48:05.910Z,43.94
2023-03-29T06:50:32.682Z,43.71
2023-03-29T06:52:59.990Z,42.94
2023-03-29T06:55:27.188Z,43.03
2023-03-29T06:57:54.677Z,42.79
2023-03-29T07:00:30.761Z,42.43
2023-03-29T07:02:58.734Z,41.39
2023-03-29T07:05:28.588Z,40.80
2023-03-29T07:08:13.873Z,40.74
2023-03-29T07:10:47.495Z,40.40
2023-03-29T07:13:15.535Z,40.06
2023-03-29T07:15:43.709Z,40.14
2023-03-29T07:18:12.513Z,39.41
2023-03-29T07:20:39.348Z,40.17
2023-03-29T07:23:06.931Z,40.16
2023-03-29T07:25:33.993Z,39.36
2023-03-29T07:28:01.522Z,39.62
2023-03-29T07:30:31.625Z,39.34
2023-03-29T07:32:59.771Z,39.01
2023-03-29T07:35:28.304Z,38.97
2023-03-29T07:37:55.855Z,38.15
2023-03-29T07:40:23.950Z,37.69
2023-03-29T07:42:54.104Z,37.17
2023-03-29T07:45:26.484Z,36.93
2023-03-29T07:48:00.661Z,36.38
2023-03-29T07:50:27.769Z,35.98
2023-03-29T07:52:54.786Z,35.41
2023-03-29T07:55:22.104Z,36.01
2023-03-29T07:57:49.928Z,36.17
2023-03-29T08:00:17.387Z,36.49
2023-03-29T08:02:45.702Z,35.63
2023-03-29T08:05:14.316Z,35.03
2023-03-29T08:07:45.159Z,36.05
2023-03-29T08:10:17.483Z,36.13
2023-03-29T08:12:45.928Z,35.17
2023-03-29T08:15:13.310Z,36.25
2023-03-29T08:17:40.836Z,36.07
2023-03-29T08:20:11.558Z,36.75
2023-03-29T08:22:38.898Z,36.30
2023-03-29T08:25:06.918Z,36.85
2023-03-29T08:27:34.249Z,36.14
2023-03-29T08:30:01.448Z,35.26
2023-03-29T08:32:28.301Z,33.46
2023-03-29T08:34:55.210Z,33.81
2023-03-29T08:37:23.980Z,31.40
2023-03-29T08:39:50.718Z,31.92
2023-03-29T08:42:34.026Z,30.10
2023-03-29T08:45:29.367Z,29.45
2023-03-29T08:48:14.285Z,28.71
2023-03-29T08:50:47.962Z,29.51
2023-03-29T08:53:21.603Z,29.78
2023-03-29T08:55:48.825Z,31.03
2023-03-29T08:58:19.229Z,30.49
2023-03-29T09:00:49.995Z,28.40
2023-03-29T09:03:22.909Z,26.82
2023-03-29T09:05:55.182Z,25.11
2023-03-29T09:08:22.686Z,26.10
2023-03-29T09:11:04.736Z,26.38
2023-03-29T09:13:49.995Z,25.22
2023-03-29T09:16:25.381Z,25.08
2023-03-29T09:19:13.767Z,23.93
2023-03-29T09:21:59.199Z,23.27
2023-03-29T09:24:40.044Z,24.27
2023-03-29T09:27:11.046Z,23.46
2023-03-29T09:29:56.608Z,23.21
2023-03-29T09:32:33.029Z,23.40
2023-03-29T09:35:24.586Z,22.71
2023-03-29T09:37:53.394Z,22.79
2023-03-29T09:40:22.433Z,22.87
2023-03-29T09:42:51.650Z,24.77
2023-03-29T09:45:18.831Z,23.87
2023-03-29T09:47:58.235Z,23.90
2023-03-29T09:50:36.874Z,22.96
2023-03-29T09:53:05.038Z,22.66
2023-03-29T09:55:34.081Z,22.69
2023-03-29T09:58:02.397Z,22.69
2023-03-29T10:00:30.091Z,25.00
2023-03-29T10:02:58.936Z,23.22
2023-03-29T10:05:36.728Z,23.91
2023-03-29T10:08:17.657Z,23.50
2023-03-29T10:10:47.116Z,24.94
2023-03-29T10:13:18.993Z,23.79
2023-03-29T10:16:07.523Z,24.70
2023-03-29T10:18:40.735Z,23.93
2023-03-29T10:21:12.101Z,24.42
2023-03-29T10:23:39.149Z,24.02
2023-03-29T10:26:07.959Z,23.56
2023-03-29T10:28:36.326Z,23.26
2023-03-29T10:31:05.937Z,21.17
2023-03-29T10:33:34.894Z,21.64
2023-03-29T10:36:05.094Z,21.82
2023-03-29T10:38:32.058Z,24.35
2023-03-29T10:41:09.974Z,23.38
2023-03-29T10:43:45.415Z,22.14
2023-03-29T10:46:21.271Z,22.56
2023-03-29T10:49:00.051Z,22.39
2023-03-29T10:51:32.696Z,22.85
2023-03-29T10:53:59.965Z,22.51
2023-03-29T10:56:33.047Z,22.24
2023-03-29T10:59:23.095Z,22.35
2023-03-29T11:01:56.057Z,21.09
2023-03-29T11:05:00.185Z,20.30
2023-03-29T11:07:52.581Z,20.56
2023-03-29T11:10:38.514Z,18.77
2023-03-29T11:13:25.122Z,18.96
2023-03-29T11:16:13.838Z,19.42
2023-03-29T11:19:04.623Z,16.95
2023-03-29T11:21:43.432Z,17.39
2023-03-29T11:24:25.647Z,15.90
2023-03-29T11:27:31.443Z,14.93
2023-03-29T11:30:01.107Z,15.46
2023-03-29T11:32:36.530Z,13.53
2023-03-29T11:35:06.601Z,13.75
2023-03-29T11:37:45.474Z,13.80
2023-03-29T11:40:45.317Z,14.31
2023-03-29T11:43:17.170Z,15.84
2023-03-29T11:45:50.630Z,14.87
2023-03-29T11:48:21.565Z,14.66
2023-03-29T11:50:52.145Z,14.78
2023-03-29T11:53:25.847Z,13.38
2023-03-29T11:55:54.146Z,14.51
2023-03-29T11:58:22.453Z,15.18
2023-03-29T12:00:55.448Z,13.50
2023-03-29T12:03:39.278Z,13.54
2023-03-29T12:06:13.234Z,14.96
2023-03-29T12:08:53.154Z,15.73
2023-03-29T12:11:21.208Z,15.60
2023-03-29T12:13:52.580Z,15.54
2023-03-29T12:16:37.160Z,16.89
2023-03-29T12:19:27.114Z,15.38
2023-03-29T12:21:56.098Z,16.83
2023-03-29T12:24:23.751Z,14.78
2023-03-29T12:27:03.065Z,13.41
2023-03-29T12:30:02.493Z,13.13
2023-03-29T12:32:53.624Z,12.83
2023-03-29T12:35:48.610Z,14.40
2023-03-29T12:38:24.208Z,14.80
2023-03-29T12:40:59.630Z,14.95
2023-03-29T12:43:37.572Z,15.89
2023-03-29T12:46:12.823Z,17.53
2023-03-29T12:48:41.628Z,17.84
2023-03-29T12:51:16.056Z,15.59
2023-03-29T12:53:45.480Z,14.94
2023-03-29T12:56:17.752Z,14.38
2023-03-29T12:59:11.656Z,13.90
2023-03-29T13:01:41.285Z,15.63
2023-03-29T13:04:19.785Z,14.99
2023-03-29T13:06:46.590Z,17.08
2023-03-29T13:09:29.984Z,16.65
2023-03-29T13:12:11.894Z,15.23
2023-03-29T13:14:43.076Z,13.83
2023-03-29T13:17:19.502Z,15.11
2023-03-29T13:20:11.158Z,15.36
2023-03-29T13:23:14.603Z,17.03
2023-03-29T13:26:21.444Z,18.02
2023-03-29T13:29:03.341Z,19.07
2023-03-29T13:31:48.553Z,19.38
2023-03-29T13:34:28.160Z,17.78
2023-03-29T13:37:20.914Z,15.96
2023-03-29T13:39:51.271Z,14.28
2023-03-29T13:42:24.103Z,12.71
2023-03-29T13:44:53.866Z,12.36
2023-03-29T13:47:33.086Z,14.83
2023-03-29T13:50:03.958Z,16.20
2023-03-29T13:52:34.480Z,14.62
2023-03-29T13:55:28.310Z,16.22
2023-03-29T13:58:13.452Z,13.71
2023-03-29T14:00:46.247Z,14.80
2023-03-29T14:03:30.009Z,14.54
2023-03-29T14:06:01.990Z,14.78
2023-03-29T14:08:37.816Z,16.23
2023-03-29T14:11:06.964Z,16.65
2023-03-29T14:13:35.242Z,17.18
2023-03-29T14:16:10.861Z,16.56
2023-03-29T14:18:40.126Z,16.24
2023-03-29T14:21:07.609Z,15.62
2023-03-29T14:23:36.773Z,16.65
2023-03-29T14:26:15.390Z,18.15
2023-03-29T14:28:48.967Z,19.63
2023-03-29T14:31:24.926Z,20.22
2023-03-29T14:33:56.646Z,21.64
2023-03-29T14:36:27.416Z,22.36
2023-03-29T14:38:59.440Z,24.32
2023-03-29T14:41:31.203Z,23.63
2023-03-29T14:43:58.487Z,25.50
2023-03-29T14:46:25.795Z,25.05
2023-03-29T14:48:54.348Z,27.32
2023-03-29T14:51:23.350Z,28.98
2023-03-29T14:53:50.666Z,27.42
2023-03-29T14:56:21.240Z,28.98
2023-03-29T14:58:47.946Z,28.52
2023-03-29T15:01:20.262Z,28.35
2023-03-29T15:03:55.104Z,29.06
2023-03-29T15:06:24.167Z,29.35
2023-03-29T15:09:01.994Z,29.98
2023-03-29T15:11:31.697Z,30.00
2023-03-29T15:14:04.456Z,29.00
2023-03-29T15:16:32.058Z,30.93
2023-03-29T15:19:01.577Z,29.99
2023-03-29T15:21:33.446Z,29.98
2023-03-29T15:24:04.834Z,32.14
2023-03-29T15:26:37.454Z,32.64
2023-03-29T15:29:17.492Z,33.02
2023-03-29T15:31:54.205Z,32.80
2023-03-29T15:34:29.676Z,32.43
2023-03-29T15:36:59.812Z,33.10
2023-03-29T15:39:27.696Z,30.84
2023-03-29T15:41:56.756Z,33.51
2023-03-29T15:44:29.066Z,34.27
2023-03-29T15:46:57.771Z,33.27
2023-03-29T15:49:25.085Z,34.34
2023-03-29T15:51:55.537Z,34.60
2023-03-29T15:54:24.397Z,35.46
2023-03-29T15:56:55.344Z,35.68
2023-03-29T15:59:22.834Z,36.50
2023-03-29T16:01:49.786Z,36.42
2023-03-29T16:04:21.067Z,36.32
2023-03-29T16:06:50.622Z,36.64
2023-03-29T16:09:17.418Z,35.21
2023-03-29T16:11:44.911Z,36.80
2023-03-29T16:14:17.993Z,37.72
2023-03-29T16:16:44.754Z,38.22
2023-03-29T16:19:11.523Z,37.81
2023-03-29T16:21:38.416Z,38.57
2023-03-29T16:24:07.240Z,39.27
2023-03-29T16:26:33.918Z,36.64
2023-03-29T16:29:00.716Z,37.09
2023-03-29T16:31:27.546Z,37.19
2023-03-29T16:33:54.312Z,37.78
2023-03-29T16:36:21.168Z,37.14
2023-03-29T16:38:47.936Z,37.50
2023-03-29T16:41:15.824Z,36.77
2023-03-29T16:43:42.666Z,38.73
2023-03-29T16:46:10.684Z,38.39
2023-03-29T16:48:37.970Z,38.84
2023-03-29T16:51:05.782Z,39.78
2023-03-29T16:53:32.808Z,39.43
2023-03-29T16:55:59.520Z,39.26
2023-03-29T16:58:27.128Z,39.39
2023-03-29T17:00:53.866Z,39.19
2023-03-29T17:03:21.145Z,38.97
2023-03-29T17:05:51.991Z,39.32
2023-03-29T17:08:20.311Z,38.94
2023-03-29T17:10:51.709Z,39.05
2023-03-29T17:13:18.522Z,38.33
2023-03-29T17:15:45.201Z,38.49
2023-03-29T17:18:12.368Z,38.52
2023-03-29T17:20:40.284Z,39.56
2023-03-29T17:23:08.784Z,38.28
2023-03-29T17:25:36.249Z,39.35
2023-03-29T17:28:03.674Z,40.40
2023-03-29T17:30:30.538Z,40.55
2023-03-29T17:32:57.224Z,40.44
2023-03-29T17:35:24.031Z,39.13
2023-03-29T17:37:50.768Z,39.24
2023-03-29T17:40:18.606Z,40.58
2023-03-29T17:42:52.534Z,43.45
2023-03-29T17:45:19.385Z,40.89
2023-03-29T17:47:46.183Z,42.19
2023-03-29T17:50:13.348Z,42.43
2023-03-29T17:52:40.086Z,42.00
2023-03-29T17:55:11.243Z,42.07
2023-03-29T17:57:38.876Z,42.59
2023-03-29T18:00:08.120Z,44.72
2023-03-29T18:02:35.122Z,44.56
2023-03-29T18:05:01.998Z,46.31
2023-03-29T18:07:29.063Z,45.85
2023-03-29T18:09:55.940Z,46.09
2023-03-29T18:12:25.964Z,46.63
2023-03-29T18:14:52.702Z,47.71
2023-03-29T18:17:19.542Z,47.90
2023-03-29T18:19:46.533Z,47.81
2023-03-29T18:22:13.328Z,47.05
2023-03-29T18:24:40.160Z,46.98
2023-03-29T18:27:06.866Z,46.36
2023-03-29T18:29:33.623Z,45.91
2023-03-29T18:32:03.017Z,45.42
2023-03-29T18:34:30.649Z,45.27
2023-03-29T18:36:57.710Z,46.04
2023-03-29T18:39:24.748Z,45.90
2023-03-29T18:41:52.005Z,46.91
2023-03-29T18:44:18.772Z,47.12
2023-03-29T18:46:45.494Z,47.39
2023-03-29T18:49:13.187Z,47.43
2023-03-29T18:51:42.075Z,46.81
2023-03-29T18:54:09.070Z,47.36
2023-03-29T18:56:36.013Z,47.45
2023-03-29T18:59:06.195Z,47.79
2023-03-29T19:01:33.215Z,47.54
2023-03-29T19:04:00.418Z,47.93
2023-03-29T19:06:27.368Z,48.29
2023-03-29T19:08:55.321Z,47.88
2023-03-29T19:11:23.003Z,48.50
2023-03-29T19:13:50.724Z,48.91
2023-03-29T19:16:17.547Z,48.76
2023-03-29T19:18:44.353Z,49.23
2023-03-29T19:21:11.380Z,49.56
2023-03-29T19:23:38.162Z,49.81
2023-03-29T19:26:05.855Z,50.20
2023-03-29T19:28:33.758Z,50.17
2023-03-29T19:31:01.901Z,49.23
2023-03-29T19:33:29.358Z,49.47
2023-03-29T19:35:56.697Z,50.22
2023-03-29T19:38:23.649Z,50.02
2023-03-29T19:40:51.603Z,49.89
2023-03-29T19:43:19.377Z,49.88
2023-03-29T19:45:47.702Z,49.99
2023-03-29T19:48:21.915Z,50.23
2023-03-29T19:50:49.591Z,51.04
2023-03-29T19:53:16.487Z,50.39
2023-03-29T19:55:45.134Z,50.31
2023-03-29T19:58:12.617Z,50.77
2023-03-29T20:00:39.442Z,51.74
2023-03-29T20:03:09.879Z,50.91
2023-03-29T20:05:38.426Z,51.00
2023-03-29T20:08:05.402Z,50.85
2023-03-29T20:10:32.718Z,51.12
2023-03-29T20:12:59.455Z,51.01
2023-03-29T20:15:26.306Z,51.78
2023-03-29T20:17:55.297Z,51.66
2023-03-29T20:20:24.678Z,51.52
2023-03-29T20:22:53.972Z,51.69
2023-03-29T20:25:21.294Z,51.89
2023-03-29T20:27:49.415Z,52.65
2023-03-29T20:30:16.438Z,52.55
2023-03-29T20:32:43.281Z,51.97
2023-03-29T20:35:11.647Z,52.14
2023-03-29T20:37:38.314Z,53.15
2023-03-29T20:40:06.645Z,53.88
2023-03-29T20:42:34.458Z,54.64
2023-03-29T20:45:01.866Z,54.19
2023-03-29T20:47:29.423Z,55.06
2023-03-29T20:49:56.793Z,55.81
2023-03-29T20:52:24.059Z,56.40
2023-03-29T20:54:50.764Z,55.59
2023-03-29T20:57:19.939Z,55.15
2023-03-29T20:59:49.149Z,55.96
2023-03-29T21:02:19.119Z,55.79
2023-03-29T21:04:49.765Z,56.50
2023-03-29T21:07:17.178Z,56.42
2023-03-29T21:09:44.015Z,56.05
2023-03-29T21:12:11.290Z,55.87
2023-03-29T21:14:38.718Z,55.99
2023-03-29T21:17:05.562Z,56.40
2023-03-29T21:19:32.406Z,55.92
2023-03-29T21:21:59.163Z,57.47
2023-03-29T21:24:25.995Z,57.30
2023-03-29T21:26:52.709Z,56.99
2023-03-29T21:29:19.430Z,56.88
2023-03-29T21:31:46.302Z,56.42
2023-03-29T21:34:13.151Z,56.50
2023-03-29T21:36:40.308Z,56.71
2023-03-29T21:39:07.013Z,56.56
2023-03-29T21:41:33.817Z,57.06
2023-03-29T21:44:00.683Z,56.90
2023-03-29T21:46:27.557Z,58.63
2023-03-29T21:48:54.268Z,58.40
2023-03-29T21:51:21.052Z,58.20
2023-03-29T21:53:47.755Z,58.30
2023-03-29T21:56:15.393Z,58.75
2023-03-29T21:58:42.428Z,58.16
2023-03-29T22:01:10.485Z,58.44
2023-03-29T22:03:37.844Z,58.96
2023-03-29T22:06:08.599Z,58.70
2023-03-29T22:08:38.721Z,58.20
2023-03-29T22:11:08.461Z,58.46
2023-03-29T22:13:35.318Z,58.77
2023-03-29T22:16:03.831Z,60.61
2023-03-29T22:18:42.685Z,59.57
2023-03-29T22:21:24.875Z,59.12
2023-03-29T22:23:53.516Z,59.75
2023-03-29T22:26:23.338Z,59.46
2023-03-29T22:28:51.088Z,58.87
2023-03-29T22:31:19.497Z,59.84
2023-03-29T22:33:46.622Z,59.59
2023-03-29T22:36:23.247Z,60.14
2023-03-29T22:38:50.760Z,59.33
2023-03-29T22:41:18.524Z,59.07
2023-03-29T22:43:45.299Z,60.58
2023-03-29T22:46:13.713Z,60.17
2023-03-29T22:48:40.711Z,59.64
2023-03-29T22:51:07.485Z,60.50
2023-03-29T22:53:34.473Z,60.41
2023-03-29T22:56:01.348Z,62.08
2023-03-29T22:58:29.429Z,60.73
2023-03-29T23:00:57.270Z,61.11
2023-03-29T23:03:24.066Z,61.28
2023-03-29T23:05:55.206Z,60.67
2023-03-29T23:08:23.439Z,60.47
2023-03-29T23:10:50.609Z,60.38
2023-03-29T23:13:25.837Z,60.38
2023-03-29T23:15:54.592Z,60.64
2023-03-29T23:18:23.532Z,61.21
2023-03-29T23:20:52.501Z,62.05
2023-03-29T23:23:20.123Z,61.19
2023-03-29T23:25:48.586Z,61.38
2023-03-29T23:28:16.963Z,61.26
2023-03-29T23:30:43.830Z,62.87
2023-03-29T23:33:10.645Z,62.17
2023-03-29T23:35:37.758Z,62.80
2023-03-29T23:38:05.804Z,62.34
2023-03-29T23:40:33.288Z,62.01
2023-03-29T23:43:00.252Z,61.81
2023-03-29T23:45:30.042Z,62.08
2023-03-29T23:47:57.372Z,61.87
2023-03-29T23:50:24.448Z,61.76
2023-03-29T23:52:51.723Z,61.62
2023-03-29T23:55:18.909Z,62.57
2023-03-29T23:57:45.713Z,61.94
